sensor_id;sensor_type;location;lat;lon;timestamp;P1;durP1;ratioP1;P2;durP2;ratioP2
56269;SDS011;42176;43.240;27.880;2022-08-25T00:01:10;33.60;;;4.32;;
56269;SDS011;42176;43.240;27.880;2022-08-25T00:03:37;40.75;;;4.65;;
56269;SDS011;42176;43.240;27.880;2022-08-25T00:06:03;36.72;;;5.30;;
56269;SDS011;42176;43.240;27.880;2022-08-25T00:08:30;39.75;;;4.88;;
56269;SDS011;42176;43.240;27.880;2022-08-25T00:10:58;39.33;;;5.95;;
56269;SDS011;42176;43.240;27.880;2022-08-25T00:13:40;32.53;;;4.82;;
56269;SDS011;42176;43.240;27.880;2022-08-25T00:18:33;50.90;;;6.25;;
56269;SDS011;42176;43.240;27.880;2022-08-25T00:21:01;32.42;;;4.47;;
56269;SDS011;42176;43.240;27.880;2022-08-25T00:23:27;32.50;;;4.25;;
56269;SDS011;42176;43.240;27.880;2022-08-25T00:25:52;33.65;;;5.72;;
56269;SDS011;42176;43.240;27.880;2022-08-25T00:28:19;36.25;;;5.82;;
56269;SDS011;42176;43.240;27.880;2022-08-25T00:30:45;35.50;;;5.15;;
56269;SDS011;42176;43.240;27.880;2022-08-25T00:33:11;41.80;;;5.82;;
56269;SDS011;42176;43.240;27.880;2022-08-25T00:35:36;40.53;;;6.50;;
56269;SDS011;42176;43.240;27.880;2022-08-25T00:38:05;37.33;;;6.93;;
56269;SDS011;42176;43.240;27.880;2022-08-25T00:40:31;24.38;;;4.53;;
56269;SDS011;42176;43.240;27.880;2022-08-25T00:42:57;22.35;;;4.45;;
56269;SDS011;42176;43.240;27.880;2022-08-25T00:45:23;31.52;;;5.90;;
56269;SDS011;42176;43.240;27.880;2022-08-25T00:47:48;42.30;;;7.15;;
56269;SDS011;42176;43.240;27.880;2022-08-25T00:50:14;28.23;;;4.63;;
56269;SDS011;42176;43.240;27.880;2022-08-25T00:52:42;35.20;;;6.13;;
56269;SDS011;42176;43.240;27.880;2022-08-25T00:55:13;29.98;;;4.88;;
56269;SDS011;42176;43.240;27.880;2022-08-25T00:57:44;38.95;;;5.93;;
56269;SDS011;42176;43.240;27.880;2022-08-25T01:02:41;37.80;;;5.47;;
56269;SDS011;42176;43.240;27.880;2022-08-25T01:05:07;44.88;;;5.95;;
56269;SDS011;42176;43.240;27.880;2022-08-25T01:07:32;31.00;;;4.40;;
56269;SDS011;42176;43.240;27.880;2022-08-25T01:09:58;34.95;;;4.88;;
56269;SDS011;42176;43.240;27.880;2022-08-25T01:12:24;46.40;;;6.00;;
56269;SDS011;42176;43.240;27.880;2022-08-25T01:14:50;46.05;;;5.45;;
56269;SDS011;42176;43.240;27.880;2022-08-25T01:17:17;41.17;;;5.20;;
56269;SDS011;42176;43.240;27.880;2022-08-25T01:19:44;27.98;;;5.32;;
56269;SDS011;42176;43.240;27.880;2022-08-25T01:22:10;32.75;;;6.00;;
56269;SDS011;42176;43.240;27.880;2022-08-25T01:27:56;32.42;;;4.55;;
56269;SDS011;42176;43.240;27.880;2022-08-25T01:30:22;47.40;;;5.80;;
56269;SDS011;42176;43.240;27.880;2022-08-25T01:32:49;33.30;;;3.97;;
56269;SDS011;42176;43.240;27.880;2022-08-25T01:35:14;30.75;;;4.70;;
56269;SDS011;42176;43.240;27.880;2022-08-25T01:37:40;33.03;;;4.03;;
56269;SDS011;42176;43.240;27.880;2022-08-25T01:40:06;32.17;;;4.45;;
56269;SDS011;42176;43.240;27.880;2022-08-25T01:42:36;38.97;;;5.05;;
56269;SDS011;42176;43.240;27.880;2022-08-25T01:45:24;40.80;;;5.20;;
56269;SDS011;42176;43.240;27.880;2022-08-25T01:47:50;36.95;;;4.30;;
56269;SDS011;42176;43.240;27.880;2022-08-25T01:50:15;41.00;;;4.82;;
56269;SDS011;42176;43.240;27.880;2022-08-25T01:52:55;28.83;;;4.15;;
56269;SDS011;42176;43.240;27.880;2022-08-25T01:55:25;35.40;;;4.82;;
56269;SDS011;42176;43.240;27.880;2022-08-25T01:57:50;26.88;;;5.82;;
56269;SDS011;42176;43.240;27.880;2022-08-25T02:00:16;30.25;;;4.57;;
56269;SDS011;42176;43.240;27.880;2022-08-25T02:02:43;35.35;;;4.53;;
56269;SDS011;42176;43.240;27.880;2022-08-25T02:05:09;36.95;;;5.88;;
56269;SDS011;42176;43.240;27.880;2022-08-25T02:07:37;28.20;;;4.50;;
56269;SDS011;42176;43.240;27.880;2022-08-25T02:10:03;33.47;;;4.43;;
56269;SDS011;42176;43.240;27.880;2022-08-25T02:12:30;23.48;;;3.63;;
56269;SDS011;42176;43.240;27.880;2022-08-25T02:14:56;36.17;;;4.22;;
56269;SDS011;42176;43.240;27.880;2022-08-25T02:17:23;27.83;;;4.25;;
56269;SDS011;42176;43.240;27.880;2022-08-25T02:19:49;17.80;;;3.50;;
56269;SDS011;42176;43.240;27.880;2022-08-25T02:22:14;36.80;;;4.68;;
56269;SDS011;42176;43.240;27.880;2022-08-25T02:24:41;29.13;;;4.80;;
56269;SDS011;42176;43.240;27.880;2022-08-25T02:27:06;32.25;;;4.22;;
56269;SDS011;42176;43.240;27.880;2022-08-25T02:29:32;35.78;;;4.57;;
56269;SDS011;42176;43.240;27.880;2022-08-25T02:31:58;30.77;;;3.72;;
56269;SDS011;42176;43.240;27.880;2022-08-25T02:34:23;22.80;;;3.92;;
56269;SDS011;42176;43.240;27.880;2022-08-25T02:36:49;30.15;;;4.13;;
56269;SDS011;42176;43.240;27.880;2022-08-25T02:39:14;24.42;;;4.10;;
56269;SDS011;42176;43.240;27.880;2022-08-25T02:41:40;36.22;;;3.50;;
56269;SDS011;42176;43.240;27.880;2022-08-25T02:44:06;32.00;;;4.53;;
56269;SDS011;42176;43.240;27.880;2022-08-25T02:46:32;33.40;;;4.68;;
56269;SDS011;42176;43.240;27.880;2022-08-25T02:48:58;26.92;;;3.58;;
56269;SDS011;42176;43.240;27.880;2022-08-25T02:51:24;15.23;;;3.63;;
56269;SDS011;42176;43.240;27.880;2022-08-25T02:53:52;28.38;;;3.10;;
56269;SDS011;42176;43.240;27.880;2022-08-25T02:56:18;21.45;;;3.33;;
56269;SDS011;42176;43.240;27.880;2022-08-25T02:58:44;22.10;;;3.63;;
56269;SDS011;42176;43.240;27.880;2022-08-25T03:01:10;19.15;;;3.63;;
56269;SDS011;42176;43.240;27.880;2022-08-25T03:03:38;14.60;;;2.60;;
56269;SDS011;42176;43.240;27.880;2022-08-25T03:06:07;28.58;;;4.28;;
56269;SDS011;42176;43.240;27.880;2022-08-25T03:08:34;28.92;;;3.88;;
56269;SDS011;42176;43.240;27.880;2022-08-25T03:11:00;17.90;;;3.80;;
56269;SDS011;42176;43.240;27.880;2022-08-25T03:13:26;31.58;;;4.22;;
56269;SDS011;42176;43.240;27.880;2022-08-25T03:15:52;22.42;;;3.20;;
56269;SDS011;42176;43.240;27.880;2022-08-25T03:18:18;24.10;;;4.68;;
56269;SDS011;42176;43.240;27.880;2022-08-25T03:20:43;22.77;;;2.95;;
56269;SDS011;42176;43.240;27.880;2022-08-25T03:23:10;21.25;;;3.10;;
56269;SDS011;42176;43.240;27.880;2022-08-25T03:25:37;18.95;;;3.22;;
56269;SDS011;42176;43.240;27.880;2022-08-25T03:28:22;28.95;;;3.88;;
56269;SDS011;42176;43.240;27.880;2022-08-25T03:30:48;24.10;;;3.30;;
56269;SDS011;42176;43.240;27.880;2022-08-25T03:33:14;24.75;;;3.42;;
56269;SDS011;42176;43.240;27.880;2022-08-25T03:35:39;14.55;;;3.47;;
56269;SDS011;42176;43.240;27.880;2022-08-25T03:38:05;16.10;;;3.40;;
56269;SDS011;42176;43.240;27.880;2022-08-25T03:40:31;27.17;;;4.35;;
56269;SDS011;42176;43.240;27.880;2022-08-25T03:42:56;20.50;;;3.80;;
56269;SDS011;42176;43.240;27.880;2022-08-25T03:45:23;22.88;;;3.75;;
56269;SDS011;42176;43.240;27.880;2022-08-25T03:47:50;20.25;;;3.95;;
56269;SDS011;42176;43.240;27.880;2022-08-25T03:50:16;21.65;;;4.55;;
56269;SDS011;42176;43.240;27.880;2022-08-25T03:52:43;31.23;;;3.65;;
56269;SDS011;42176;43.240;27.880;2022-08-25T03:55:10;19.25;;;3.17;;
56269;SDS011;42176;43.240;27.880;2022-08-25T03:57:37;34.85;;;3.95;;
56269;SDS011;42176;43.240;27.880;2022-08-25T04:02:31;33.63;;;4.80;;
56269;SDS011;42176;43.240;27.880;2022-08-25T04:04:57;19.40;;;3.75;;
56269;SDS011;42176;43.240;27.880;2022-08-25T04:07:23;19.55;;;3.88;;
56269;SDS011;42176;43.240;27.880;2022-08-25T04:09:48;26.75;;;4.53;;
56269;SDS011;42176;43.240;27.880;2022-08-25T04:12:14;25.17;;;3.80;;
56269;SDS011;42176;43.240;27.880;2022-08-25T04:14:39;28.95;;;4.10;;
56269;SDS011;42176;43.240;27.880;2022-08-25T04:17:06;21.80;;;4.65;;
56269;SDS011;42176;43.240;27.880;2022-08-25T04:19:32;21.60;;;3.47;;
56269;SDS011;42176;43.240;27.880;2022-08-25T04:21:58;15.65;;;3.78;;
56269;SDS011;42176;43.240;27.880;2022-08-25T04:24:23;14.25;;;2.92;;
56269;SDS011;42176;43.240;27.880;2022-08-25T04:26:49;19.30;;;4.40;;
56269;SDS011;42176;43.240;27.880;2022-08-25T04:29:17;29.50;;;5.65;;
56269;SDS011;42176;43.240;27.880;2022-08-25T04:31:44;22.77;;;3.40;;
56269;SDS011;42176;43.240;27.880;2022-08-25T04:34:11;23.63;;;4.40;;
56269;SDS011;42176;43.240;27.880;2022-08-25T04:36:38;22.35;;;4.00;;
56269;SDS011;42176;43.240;27.880;2022-08-25T04:39:04;22.75;;;5.05;;
56269;SDS011;42176;43.240;27.880;2022-08-25T04:41:30;18.05;;;3.83;;
56269;SDS011;42176;43.240;27.880;2022-08-25T04:43:57;27.40;;;4.93;;
56269;SDS011;42176;43.240;27.880;2022-08-25T04:46:24;26.02;;;3.83;;
56269;SDS011;42176;43.240;27.880;2022-08-25T04:48:52;16.15;;;3.25;;
56269;SDS011;42176;43.240;27.880;2022-08-25T04:51:20;21.20;;;4.53;;
56269;SDS011;42176;43.240;27.880;2022-08-25T04:53:49;18.65;;;3.45;;
56269;SDS011;42176;43.240;27.880;2022-08-25T04:56:17;12.50;;;4.15;;
56269;SDS011;42176;43.240;27.880;2022-08-25T04:58:45;26.33;;;3.63;;
56269;SDS011;42176;43.240;27.880;2022-08-25T05:01:12;26.17;;;4.82;;
56269;SDS011;42176;43.240;27.880;2022-08-25T05:03:39;26.58;;;3.88;;
56269;SDS011;42176;43.240;27.880;2022-08-25T05:06:06;33.05;;;4.85;;
56269;SDS011;42176;43.240;27.880;2022-08-25T05:08:32;19.85;;;4.00;;
56269;SDS011;42176;43.240;27.880;2022-08-25T05:10:58;25.60;;;3.80;;
56269;SDS011;42176;43.240;27.880;2022-08-25T05:13:28;15.85;;;3.50;;
56269;SDS011;42176;43.240;27.880;2022-08-25T05:15:54;20.70;;;3.67;;
56269;SDS011;42176;43.240;27.880;2022-08-25T05:18:22;25.45;;;4.25;;
56269;SDS011;42176;43.240;27.880;2022-08-25T05:20:49;23.63;;;4.65;;
56269;SDS011;42176;43.240;27.880;2022-08-25T05:23:17;31.58;;;5.47;;
56269;SDS011;42176;43.240;27.880;2022-08-25T05:25:43;24.00;;;4.65;;
56269;SDS011;42176;43.240;27.880;2022-08-25T05:28:09;19.10;;;4.95;;
56269;SDS011;42176;43.240;27.880;2022-08-25T05:30:39;21.75;;;4.70;;
56269;SDS011;42176;43.240;27.880;2022-08-25T05:33:06;18.98;;;3.70;;
56269;SDS011;42176;43.240;27.880;2022-08-25T05:35:32;26.50;;;4.82;;
56269;SDS011;42176;43.240;27.880;2022-08-25T05:37:57;15.20;;;3.85;;
56269;SDS011;42176;43.240;27.880;2022-08-25T05:40:23;22.40;;;4.07;;
56269;SDS011;42176;43.240;27.880;2022-08-25T05:42:49;31.20;;;4.88;;
56269;SDS011;42176;43.240;27.880;2022-08-25T05:45:15;33.00;;;6.15;;
56269;SDS011;42176;43.240;27.880;2022-08-25T05:47:41;28.60;;;4.82;;
56269;SDS011;42176;43.240;27.880;2022-08-25T05:50:07;21.15;;;4.28;;
56269;SDS011;42176;43.240;27.880;2022-08-25T05:52:33;9.40;;;3.47;;
56269;SDS011;42176;43.240;27.880;2022-08-25T05:54:58;22.38;;;4.40;;
56269;SDS011;42176;43.240;27.880;2022-08-25T05:57:24;16.13;;;4.30;;
56269;SDS011;42176;43.240;27.880;2022-08-25T05:59:50;16.27;;;4.13;;
56269;SDS011;42176;43.240;27.880;2022-08-25T06:02:15;24.45;;;5.05;;
56269;SDS011;42176;43.240;27.880;2022-08-25T06:04:59;21.02;;;4.97;;
56269;SDS011;42176;43.240;27.880;2022-08-25T06:07:27;24.58;;;4.75;;
56269;SDS011;42176;43.240;27.880;2022-08-25T06:09:52;25.48;;;4.18;;
56269;SDS011;42176;43.240;27.880;2022-08-25T06:12:18;22.95;;;3.88;;
56269;SDS011;42176;43.240;27.880;2022-08-25T06:14:45;21.30;;;4.53;;
56269;SDS011;42176;43.240;27.880;2022-08-25T06:17:12;18.58;;;3.78;;
56269;SDS011;42176;43.240;27.880;2022-08-25T06:19:38;18.73;;;3.97;;
56269;SDS011;42176;43.240;27.880;2022-08-25T06:22:03;17.98;;;4.00;;
56269;SDS011;42176;43.240;27.880;2022-08-25T06:24:28;15.07;;;3.78;;
56269;SDS011;42176;43.240;27.880;2022-08-25T06:26:54;15.65;;;3.83;;
56269;SDS011;42176;43.240;27.880;2022-08-25T06:29:21;17.33;;;4.22;;
56269;SDS011;42176;43.240;27.880;2022-08-25T06:31:46;17.70;;;3.72;;
56269;SDS011;42176;43.240;27.880;2022-08-25T06:34:14;20.27;;;4.82;;
56269;SDS011;42176;43.240;27.880;2022-08-25T06:36:40;16.83;;;3.40;;
56269;SDS011;42176;43.240;27.880;2022-08-25T06:39:06;13.27;;;4.20;;
56269;SDS011;42176;43.240;27.880;2022-08-25T06:41:32;15.80;;;4.90;;
56269;SDS011;42176;43.240;27.880;2022-08-25T06:43:58;10.13;;;3.67;;
56269;SDS011;42176;43.240;27.880;2022-08-25T06:46:24;13.48;;;3.50;;
56269;SDS011;42176;43.240;27.880;2022-08-25T06:48:52;12.50;;;3.35;;
56269;SDS011;42176;43.240;27.880;2022-08-25T06:51:19;21.17;;;4.10;;
56269;SDS011;42176;43.240;27.880;2022-08-25T06:53:46;15.15;;;3.47;;
56269;SDS011;42176;43.240;27.880;2022-08-25T06:56:13;13.13;;;3.38;;
56269;SDS011;42176;43.240;27.880;2022-08-25T06:58:39;19.45;;;3.83;;
56269;SDS011;42176;43.240;27.880;2022-08-25T07:01:12;13.25;;;3.15;;
56269;SDS011;42176;43.240;27.880;2022-08-25T07:03:40;16.25;;;3.33;;
56269;SDS011;42176;43.240;27.880;2022-08-25T07:06:06;11.32;;;2.72;;
56269;SDS011;42176;43.240;27.880;2022-08-25T07:08:33;10.52;;;2.92;;
56269;SDS011;42176;43.240;27.880;2022-08-25T07:11:06;10.98;;;2.70;;
56269;SDS011;42176;43.240;27.880;2022-08-25T07:13:33;13.00;;;3.17;;
56269;SDS011;42176;43.240;27.880;2022-08-25T07:15:59;21.02;;;3.63;;
56269;SDS011;42176;43.240;27.880;2022-08-25T07:18:26;19.58;;;4.10;;
56269;SDS011;42176;43.240;27.880;2022-08-25T07:20:51;7.80;;;3.17;;
56269;SDS011;42176;43.240;27.880;2022-08-25T07:23:18;12.48;;;3.10;;
56269;SDS011;42176;43.240;27.880;2022-08-25T07:25:45;14.02;;;3.17;;
56269;SDS011;42176;43.240;27.880;2022-08-25T07:28:11;13.05;;;3.47;;
56269;SDS011;42176;43.240;27.880;2022-08-25T07:30:37;14.82;;;3.70;;
56269;SDS011;42176;43.240;27.880;2022-08-25T07:33:02;13.10;;;2.55;;
56269;SDS011;42176;43.240;27.880;2022-08-25T07:35:29;16.75;;;3.22;;
56269;SDS011;42176;43.240;27.880;2022-08-25T07:37:56;14.48;;;2.97;;
56269;SDS011;42176;43.240;27.880;2022-08-25T07:40:24;12.80;;;3.40;;
56269;SDS011;42176;43.240;27.880;2022-08-25T07:42:53;12.15;;;2.60;;
56269;SDS011;42176;43.240;27.880;2022-08-25T07:45:21;15.65;;;2.85;;
56269;SDS011;42176;43.240;27.880;2022-08-25T07:47:55;18.38;;;3.15;;
56269;SDS011;42176;43.240;27.880;2022-08-25T07:50:26;15.35;;;4.80;;
56269;SDS011;42176;43.240;27.880;2022-08-25T07:52:53;9.80;;;2.40;;
56269;SDS011;42176;43.240;27.880;2022-08-25T07:55:20;13.20;;;3.15;;
56269;SDS011;42176;43.240;27.880;2022-08-25T07:57:48;11.63;;;5.00;;
56269;SDS011;42176;43.240;27.880;2022-08-25T08:00:14;11.68;;;2.55;;
56269;SDS011;42176;43.240;27.880;2022-08-25T08:02:41;13.05;;;3.42;;
56269;SDS011;42176;43.240;27.880;2022-08-25T08:05:07;9.35;;;3.10;;
56269;SDS011;42176;43.240;27.880;2022-08-25T08:07:34;17.73;;;2.75;;
56269;SDS011;42176;43.240;27.880;2022-08-25T08:09:59;16.10;;;2.83;;
56269;SDS011;42176;43.240;27.880;2022-08-25T08:12:25;16.45;;;4.05;;
56269;SDS011;42176;43.240;27.880;2022-08-25T08:14:51;15.40;;;3.67;;
56269;SDS011;42176;43.240;27.880;2022-08-25T08:17:18;10.68;;;3.00;;
56269;SDS011;42176;43.240;27.880;2022-08-25T08:19:44;10.52;;;2.78;;
56269;SDS011;42176;43.240;27.880;2022-08-25T08:22:09;12.75;;;2.60;;
56269;SDS011;42176;43.240;27.880;2022-08-25T08:24:36;11.77;;;2.38;;
56269;SDS011;42176;43.240;27.880;2022-08-25T08:27:06;11.60;;;2.47;;
56269;SDS011;42176;43.240;27.880;2022-08-25T08:29:33;12.15;;;2.72;;
56269;SDS011;42176;43.240;27.880;2022-08-25T08:31:59;12.48;;;3.60;;
56269;SDS011;42176;43.240;27.880;2022-08-25T08:34:25;8.50;;;2.72;;
56269;SDS011;42176;43.240;27.880;2022-08-25T08:36:51;10.65;;;3.15;;
56269;SDS011;42176;43.240;27.880;2022-08-25T08:39:17;10.80;;;2.90;;
56269;SDS011;42176;43.240;27.880;2022-08-25T08:47:36;13.02;;;2.60;;
56269;SDS011;42176;43.240;27.880;2022-08-25T08:53:06;15.68;;;2.60;;
56269;SDS011;42176;43.240;27.880;2022-08-25T08:55:39;8.15;;;2.42;;
56269;SDS011;42176;43.240;27.880;2022-08-25T09:01:06;10.98;;;2.60;;
56269;SDS011;42176;43.240;27.880;2022-08-25T09:06:04;8.10;;;2.60;;
56269;SDS011;42176;43.240;27.880;2022-08-25T09:08:32;11.68;;;3.10;;
56269;SDS011;42176;43.240;27.880;2022-08-25T09:11:22;14.73;;;3.33;;
56269;SDS011;42176;43.240;27.880;2022-08-25T09:17:05;11.25;;;2.65;;
56269;SDS011;42176;43.240;27.880;2022-08-25T09:22:57;9.75;;;2.50;;
56269;SDS011;42176;43.240;27.880;2022-08-25T09:33:26;15.87;;;3.23;;
56269;SDS011;42176;43.240;27.880;2022-08-25T09:35:54;12.15;;;3.13;;
56269;SDS011;42176;43.240;27.880;2022-08-25T09:38:21;8.77;;;2.40;;
56269;SDS011;42176;43.240;27.880;2022-08-25T09:40:48;10.77;;;2.55;;
56269;SDS011;42176;43.240;27.880;2022-08-25T09:43:33;9.10;;;2.85;;
56269;SDS011;42176;43.240;27.880;2022-08-25T09:48:30;10.60;;;3.60;;
56269;SDS011;42176;43.240;27.880;2022-08-25T09:54:15;13.85;;;2.70;;
56269;SDS011;42176;43.240;27.880;2022-08-25T09:56:55;12.73;;;3.22;;
56269;SDS011;42176;43.240;27.880;2022-08-25T09:59:30;8.05;;;3.35;;
56269;SDS011;42176;43.240;27.880;2022-08-25T10:01:59;14.77;;;2.70;;
56269;SDS011;42176;43.240;27.880;2022-08-25T10:04:27;11.60;;;3.13;;
56269;SDS011;42176;43.240;27.880;2022-08-25T10:06:58;10.20;;;3.22;;
56269;SDS011;42176;43.240;27.880;2022-08-25T10:09:39;12.45;;;2.97;;
56269;SDS011;42176;43.240;27.880;2022-08-25T10:12:16;15.30;;;3.80;;
56269;SDS011;42176;43.240;27.880;2022-08-25T10:14:45;15.93;;;3.20;;
56269;SDS011;42176;43.240;27.880;2022-08-25T10:19:50;14.55;;;3.28;;
56269;SDS011;42176;43.240;27.880;2022-08-25T10:22:36;9.55;;;2.58;;
56269;SDS011;42176;43.240;27.880;2022-08-25T10:25:05;15.90;;;3.22;;
56269;SDS011;42176;43.240;27.880;2022-08-25T10:35:29;26.80;;;3.55;;
56269;SDS011;42176;43.240;27.880;2022-08-25T10:40:45;20.58;;;3.03;;
56269;SDS011;42176;43.240;27.880;2022-08-25T10:43:29;22.65;;;4.15;;
56269;SDS011;42176;43.240;27.880;2022-08-25T10:46:00;16.77;;;3.78;;
56269;SDS011;42176;43.240;27.880;2022-08-25T11:00:03;23.80;;;3.63;;
56269;SDS011;42176;43.240;27.880;2022-08-25T11:03:25;21.00;;;4.53;;
56269;SDS011;42176;43.240;27.880;2022-08-25T11:05:37;18.58;;;2.97;;
56269;SDS011;42176;43.240;27.880;2022-08-25T11:08:09;6.32;;;2.33;;
56269;SDS011;42176;43.240;27.880;2022-08-25T11:10:38;12.93;;;2.63;;
56269;SDS011;42176;43.240;27.880;2022-08-25T11:13:15;23.02;;;3.38;;
56269;SDS011;42176;43.240;27.880;2022-08-25T11:15:53;27.20;;;5.10;;
56269;SDS011;42176;43.240;27.880;2022-08-25T11:18:22;25.13;;;3.47;;
56269;SDS011;42176;43.240;27.880;2022-08-25T11:23:26;30.55;;;5.22;;
56269;SDS011;42176;43.240;27.880;2022-08-25T11:25:59;16.33;;;4.32;;
56269;SDS011;42176;43.240;27.880;2022-08-25T11:31:20;19.73;;;3.97;;
56269;SDS011;42176;43.240;27.880;2022-08-25T11:33:49;21.75;;;4.05;;
56269;SDS011;42176;43.240;27.880;2022-08-25T11:39:00;19.77;;;4.35;;
56269;SDS011;42176;43.240;27.880;2022-08-25T11:41:51;19.52;;;4.25;;
56269;SDS011;42176;43.240;27.880;2022-08-25T11:50:08;26.08;;;5.72;;
56269;SDS011;42176;43.240;27.880;2022-08-25T11:52:50;24.77;;;3.25;;
56269;SDS011;42176;43.240;27.880;2022-08-25T12:01:00;20.58;;;4.35;;
56269;SDS011;42176;43.240;27.880;2022-08-25T12:19:53;29.05;;;3.92;;
56269;SDS011;42176;43.240;27.880;2022-08-25T12:32:20;15.35;;;3.28;;
56269;SDS011;42176;43.240;27.880;2022-08-25T12:34:57;25.77;;;3.75;;
56269;SDS011;42176;43.240;27.880;2022-08-25T12:37:27;26.95;;;3.80;;
56269;SDS011;42176;43.240;27.880;2022-08-25T12:39:58;22.92;;;3.72;;
56269;SDS011;42176;43.240;27.880;2022-08-25T12:46:31;20.50;;;3.67;;
56269;SDS011;42176;43.240;27.880;2022-08-25T12:47:54;20.88;;;3.63;;
56269;SDS011;42176;43.240;27.880;2022-08-25T12:50:43;23.35;;;3.67;;
56269;SDS011;42176;43.240;27.880;2022-08-25T12:53:18;29.58;;;4.30;;
56269;SDS011;42176;43.240;27.880;2022-08-25T12:56:09;22.23;;;3.60;;
56269;SDS011;42176;43.240;27.880;2022-08-25T12:58:54;27.77;;;3.67;;
56269;SDS011;42176;43.240;27.880;2022-08-25T13:10:40;26.77;;;4.13;;
56269;SDS011;42176;43.240;27.880;2022-08-25T13:13:17;19.33;;;4.20;;
56269;SDS011;42176;43.240;27.880;2022-08-25T13:16:02;21.35;;;3.60;;
56269;SDS011;42176;43.240;27.880;2022-08-25T13:18:33;17.23;;;2.78;;
56269;SDS011;42176;43.240;27.880;2022-08-25T13:23:36;30.02;;;4.82;;
56269;SDS011;42176;43.240;27.880;2022-08-25T13:26:05;28.20;;;3.78;;
56269;SDS011;42176;43.240;27.880;2022-08-25T13:28:33;22.60;;;3.65;;
56269;SDS011;42176;43.240;27.880;2022-08-25T13:31:02;31.77;;;3.50;;
56269;SDS011;42176;43.240;27.880;2022-08-25T13:33:30;26.60;;;3.45;;
56269;SDS011;42176;43.240;27.880;2022-08-25T13:35:57;53.17;;;5.30;;
56269;SDS011;42176;43.240;27.880;2022-08-25T13:38:43;27.48;;;3.88;;
56269;SDS011;42176;43.240;27.880;2022-08-25T13:41:15;28.27;;;4.15;;
56269;SDS011;42176;43.240;27.880;2022-08-25T13:43:43;27.10;;;3.08;;
56269;SDS011;42176;43.240;27.880;2022-08-25T13:46:09;24.70;;;4.93;;
56269;SDS011;42176;43.240;27.880;2022-08-25T13:48:35;22.45;;;3.97;;
56269;SDS011;42176;43.240;27.880;2022-08-25T13:51:15;26.65;;;4.03;;
56269;SDS011;42176;43.240;27.880;2022-08-25T13:53:51;34.30;;;4.90;;
56269;SDS011;42176;43.240;27.880;2022-08-25T13:56:23;25.33;;;3.75;;
56269;SDS011;42176;43.240;27.880;2022-08-25T13:58:54;29.63;;;5.05;;
56269;SDS011;42176;43.240;27.880;2022-08-25T14:01:32;23.67;;;4.53;;
56269;SDS011;42176;43.240;27.880;2022-08-25T14:06:44;28.38;;;4.68;;
56269;SDS011;42176;43.240;27.880;2022-08-25T14:09:12;24.50;;;3.30;;
56269;SDS011;42176;43.240;27.880;2022-08-25T14:16:47;31.23;;;4.97;;
56269;SDS011;42176;43.240;27.880;2022-08-25T14:19:18;30.52;;;3.47;;
56269;SDS011;42176;43.240;27.880;2022-08-25T14:21:47;32.80;;;4.82;;
56269;SDS011;42176;43.240;27.880;2022-08-25T14:24:14;26.98;;;4.15;;
56269;SDS011;42176;43.240;27.880;2022-08-25T14:26:41;33.80;;;4.93;;
56269;SDS011;42176;43.240;27.880;2022-08-25T14:29:07;33.85;;;3.50;;
56269;SDS011;42176;43.240;27.880;2022-08-25T14:31:33;47.47;;;6.00;;
56269;SDS011;42176;43.240;27.880;2022-08-25T14:34:07;36.33;;;6.23;;
56269;SDS011;42176;43.240;27.880;2022-08-25T14:36:36;26.48;;;5.03;;
56269;SDS011;42176;43.240;27.880;2022-08-25T14:39:02;34.55;;;4.68;;
56269;SDS011;42176;43.240;27.880;2022-08-25T14:41:30;27.10;;;3.60;;
56269;SDS011;42176;43.240;27.880;2022-08-25T14:43:58;30.50;;;4.35;;
56269;SDS011;42176;43.240;27.880;2022-08-25T14:46:28;37.58;;;4.15;;
56269;SDS011;42176;43.240;27.880;2022-08-25T14:48:59;36.33;;;4.82;;
56269;SDS011;42176;43.240;27.880;2022-08-25T14:51:29;39.90;;;5.80;;
56269;SDS011;42176;43.240;27.880;2022-08-25T14:53:58;30.77;;;4.63;;
56269;SDS011;42176;43.240;27.880;2022-08-25T14:56:26;19.45;;;3.20;;
56269;SDS011;42176;43.240;27.880;2022-08-25T14:58:53;25.45;;;4.60;;
56269;SDS011;42176;43.240;27.880;2022-08-25T15:01:19;27.00;;;4.72;;
56269;SDS011;42176;43.240;27.880;2022-08-25T15:03:46;22.35;;;4.72;;
56269;SDS011;42176;43.240;27.880;2022-08-25T15:06:15;20.70;;;4.53;;
56269;SDS011;42176;43.240;27.880;2022-08-25T15:08:41;31.85;;;4.45;;
56269;SDS011;42176;43.240;27.880;2022-08-25T15:11:25;36.58;;;3.58;;
56269;SDS011;42176;43.240;27.880;2022-08-25T15:13:53;21.13;;;3.08;;
56269;SDS011;42176;43.240;27.880;2022-08-25T15:16:24;29.52;;;5.60;;
56269;SDS011;42176;43.240;27.880;2022-08-25T15:18:53;26.15;;;3.35;;
56269;SDS011;42176;43.240;27.880;2022-08-25T15:21:18;29.00;;;4.35;;
56269;SDS011;42176;43.240;27.880;2022-08-25T15:23:44;37.50;;;6.32;;
56269;SDS011;42176;43.240;27.880;2022-08-25T15:26:10;42.75;;;5.25;;
56269;SDS011;42176;43.240;27.880;2022-08-25T15:28:41;16.00;;;4.10;;
56269;SDS011;42176;43.240;27.880;2022-08-25T15:31:09;30.45;;;3.50;;
56269;SDS011;42176;43.240;27.880;2022-08-25T15:33:36;22.92;;;3.55;;
56269;SDS011;42176;43.240;27.880;2022-08-25T15:36:02;25.17;;;3.83;;
56269;SDS011;42176;43.240;27.880;2022-08-25T15:38:28;22.05;;;3.25;;
56269;SDS011;42176;43.240;27.880;2022-08-25T15:40:53;31.88;;;3.83;;
56269;SDS011;42176;43.240;27.880;2022-08-25T15:43:18;24.52;;;4.07;;
56269;SDS011;42176;43.240;27.880;2022-08-25T15:45:44;21.50;;;3.03;;
56269;SDS011;42176;43.240;27.880;2022-08-25T15:48:09;44.10;;;4.20;;
56269;SDS011;42176;43.240;27.880;2022-08-25T15:50:35;24.90;;;3.58;;
56269;SDS011;42176;43.240;27.880;2022-08-25T15:53:00;36.75;;;4.30;;
56269;SDS011;42176;43.240;27.880;2022-08-25T15:55:26;29.90;;;4.07;;
56269;SDS011;42176;43.240;27.880;2022-08-25T15:57:51;25.33;;;3.65;;
56269;SDS011;42176;43.240;27.880;2022-08-25T16:00:17;26.55;;;3.10;;
56269;SDS011;42176;43.240;27.880;2022-08-25T16:02:43;29.02;;;5.57;;
56269;SDS011;42176;43.240;27.880;2022-08-25T16:05:09;41.47;;;5.47;;
56269;SDS011;42176;43.240;27.880;2022-08-25T16:07:35;33.53;;;5.53;;
56269;SDS011;42176;43.240;27.880;2022-08-25T16:10:01;25.73;;;3.72;;
56269;SDS011;42176;43.240;27.880;2022-08-25T16:12:27;21.50;;;3.05;;
56269;SDS011;42176;43.240;27.880;2022-08-25T16:14:53;23.38;;;2.72;;
56269;SDS011;42176;43.240;27.880;2022-08-25T16:17:18;22.17;;;3.85;;
56269;SDS011;42176;43.240;27.880;2022-08-25T16:19:44;31.17;;;3.55;;
56269;SDS011;42176;43.240;27.880;2022-08-25T16:22:10;20.95;;;3.83;;
56269;SDS011;42176;43.240;27.880;2022-08-25T16:24:40;25.55;;;3.85;;
56269;SDS011;42176;43.240;27.880;2022-08-25T16:27:08;26.60;;;4.20;;
56269;SDS011;42176;43.240;27.880;2022-08-25T16:29:35;25.20;;;3.58;;
56269;SDS011;42176;43.240;27.880;2022-08-25T16:32:04;13.32;;;2.83;;
56269;SDS011;42176;43.240;27.880;2022-08-25T16:34:31;19.65;;;2.60;;
56269;SDS011;42176;43.240;27.880;2022-08-25T16:36:57;14.80;;;2.63;;
56269;SDS011;42176;43.240;27.880;2022-08-25T16:39:23;22.17;;;2.85;;
56269;SDS011;42176;43.240;27.880;2022-08-25T16:41:49;23.55;;;4.47;;
56269;SDS011;42176;43.240;27.880;2022-08-25T16:44:15;13.43;;;2.75;;
56269;SDS011;42176;43.240;27.880;2022-08-25T16:46:42;18.52;;;4.35;;